createdAt,value
2017-11-30T00:00:28.415Z,4.00
2017-11-30T00:02:54.635Z,4.00
2017-11-30T00:05:21.707Z,4.00
2017-11-30T00:07:48.036Z,4.00
2017-11-30T00:10:14.374Z,4.00
2017-11-30T00:12:40.717Z,4.00
2017-11-30T00:15:07.039Z,4.10
2017-11-30T00:17:33.350Z,4.00
2017-11-30T00:20:00.418Z,3.90
2017-11-30T00:22:26.741Z,3.90
2017-11-30T00:24:53.062Z,4.00
2017-11-30T00:27:19.391Z,4.00
2017-11-30T00:29:45.720Z,3.90
2017-11-30T00:32:12.766Z,3.90
2017-11-30T00:34:39.793Z,3.90
2017-11-30T00:37:06.097Z,3.80
2017-11-30T00:39:32.394Z,3.80
2017-11-30T00:41:58.714Z,3.80
2017-11-30T00:44:33.238Z,3.90
2017-11-30T00:46:59.599Z,3.80
2017-11-30T00:49:25.908Z,3.80
2017-11-30T00:51:52.253Z,3.90
2017-11-30T00:54:18.554Z,3.80
2017-11-30T00:56:44.879Z,3.90
2017-11-30T00:59:11.905Z,3.90
2017-11-30T01:01:39.909Z,3.90
2017-11-30T01:04:06.318Z,3.90
2017-11-30T01:06:33.386Z,3.90
2017-11-30T01:08:59.705Z,3.90
2017-11-30T01:11:26.017Z,3.80
2017-11-30T01:13:52.323Z,3.80
2017-11-30T01:16:18.621Z,3.80
2017-11-30T01:18:46.853Z,3.80
2017-11-30T01:21:27.185Z,3.80
2017-11-30T01:23:53.483Z,3.80
2017-11-30T01:26:19.794Z,4.00
2017-11-30T01:28:46.835Z,3.90
2017-11-30T01:31:13.858Z,3.90
2017-11-30T01:33:40.148Z,3.80
2017-11-30T01:36:06.460Z,3.90
2017-11-30T01:38:32.771Z,3.90
2017-11-30T01:40:59.078Z,3.80
2017-11-30T01:43:26.875Z,3.80
2017-11-30T01:45:53.188Z,3.80
2017-11-30T01:48:20.255Z,3.90
2017-11-30T01:50:46.575Z,3.80
2017-11-30T01:53:12.903Z,3.90
2017-11-30T01:55:39.986Z,3.80
2017-11-30T01:58:06.448Z,3.80
2017-11-30T02:00:33.510Z,3.90
2017-11-30T02:03:00.561Z,3.90
2017-11-30T02:05:27.629Z,3.80
2017-11-30T02:07:54.081Z,3.80
2017-11-30T02:10:20.415Z,3.90
2017-11-30T02:12:46.735Z,3.90
2017-11-30T02:15:13.020Z,3.90
2017-11-30T02:17:40.073Z,3.80
2017-11-30T02:20:06.433Z,3.70
2017-11-30T02:22:32.777Z,3.80
2017-11-30T02:24:59.129Z,3.80
2017-11-30T02:27:25.471Z,3.80
2017-11-30T02:29:51.808Z,3.90
2017-11-30T02:32:18.192Z,3.90
2017-11-30T02:34:44.533Z,3.90
2017-11-30T02:37:10.859Z,3.90
2017-11-30T02:39:37.180Z,3.80
2017-11-30T02:42:03.523Z,3.70
2017-11-30T02:44:29.853Z,3.70
2017-11-30T02:46:56.269Z,3.70
2017-11-30T02:49:22.599Z,3.80
2017-11-30T02:51:48.935Z,3.70
2017-11-30T02:54:15.263Z,3.70
2017-11-30T02:56:41.608Z,3.70
2017-11-30T02:59:07.965Z,3.70
2017-11-30T03:01:34.287Z,3.80
2017-11-30T03:04:00.627Z,3.80
2017-11-30T03:06:27.015Z,3.80
2017-11-30T03:08:53.365Z,3.80
2017-11-30T03:11:19.715Z,3.80
2017-11-30T03:13:46.039Z,3.80
2017-11-30T03:16:12.368Z,3.70
2017-11-30T03:18:40.597Z,3.70
2017-11-30T03:21:06.982Z,3.70
2017-11-30T03:23:33.305Z,3.70
2017-11-30T03:25:59.639Z,3.60
2017-11-30T03:28:26.880Z,3.80
2017-11-30T03:30:53.185Z,3.80
2017-11-30T03:33:19.518Z,3.70
2017-11-30T03:35:45.845Z,3.70
2017-11-30T03:38:12.908Z,3.70
2017-11-30T03:40:39.211Z,3.70
2017-11-30T03:43:06.268Z,3.60
2017-11-30T03:45:32.581Z,3.60
2017-11-30T03:47:58.913Z,3.60
2017-11-30T03:50:25.974Z,3.70
2017-11-30T03:52:53.043Z,3.70
2017-11-30T03:55:19.362Z,3.70
2017-11-30T03:57:45.697Z,3.70
2017-11-30T04:00:12.028Z,3.80
2017-11-30T04:02:38.371Z,3.70
2017-11-30T04:05:04.718Z,3.70
2017-11-30T04:07:31.008Z,3.60
2017-11-30T04:09:58.097Z,3.70
2017-11-30T04:12:24.416Z,3.70
2017-11-30T04:14:50.721Z,3.70
2017-11-30T04:17:17.507Z,3.60
2017-11-30T04:19:43.849Z,3.50
2017-11-30T04:22:10.203Z,3.60
2017-11-30T04:24:37.376Z,3.70
2017-11-30T04:27:03.727Z,3.60
2017-11-30T04:29:30.035Z,3.60
2017-11-30T04:31:56.492Z,3.70
2017-11-30T04:34:22.818Z,3.70
2017-11-30T04:36:49.097Z,3.70
2017-11-30T04:39:15.405Z,3.60
2017-11-30T04:41:41.779Z,3.70
2017-11-30T04:44:08.802Z,3.60
2017-11-30T04:46:35.179Z,3.60
2017-11-30T04:49:01.552Z,3.70
2017-11-30T04:51:27.887Z,3.70
2017-11-30T04:53:54.213Z,3.70
2017-11-30T04:56:21.312Z,3.60
2017-11-30T04:58:47.612Z,3.50
2017-11-30T05:01:14.710Z,3.60
2017-11-30T05:03:41.032Z,3.50
2017-11-30T05:06:07.374Z,3.60
2017-11-30T05:08:33.721Z,3.60
2017-11-30T05:11:00.049Z,3.70
2017-11-30T05:13:26.380Z,3.60
2017-11-30T05:15:52.703Z,3.60
2017-11-30T05:18:19.019Z,3.70
2017-11-30T05:20:45.573Z,3.70
2017-11-30T05:23:12.148Z,3.60
2017-11-30T05:25:39.210Z,3.60
2017-11-30T05:28:06.260Z,3.60
2017-11-30T05:30:32.580Z,3.50
2017-11-30T05:32:59.621Z,3.60
2017-11-30T05:35:26.653Z,3.60
2017-11-30T05:37:53.718Z,3.60
2017-11-30T05:40:20.739Z,3.60
2017-11-30T05:42:47.047Z,3.60
2017-11-30T05:45:13.349Z,3.60
2017-11-30T05:47:39.667Z,3.60
2017-11-30T05:50:06.695Z,3.80
2017-11-30T05:52:33.749Z,3.60
2017-11-30T05:55:00.788Z,3.70
2017-11-30T05:57:27.088Z,3.60
2017-11-30T05:59:53.372Z,3.60
2017-11-30T06:02:19.687Z,3.70
2017-11-30T06:04:46.716Z,3.70
2017-11-30T06:07:13.022Z,3.60
2017-11-30T06:09:39.320Z,3.60
2017-11-30T06:12:05.654Z,3.70
2017-11-30T06:14:31.960Z,3.80
2017-11-30T06:16:59.001Z,3.60
2017-11-30T06:19:26.050Z,3.60
2017-11-30T06:21:53.139Z,3.70
2017-11-30T06:24:19.443Z,3.60
2017-11-30T06:26:45.784Z,3.60
2017-11-30T06:29:12.115Z,3.80
2017-11-30T06:31:38.398Z,3.80
2017-11-30T06:34:04.751Z,3.70
2017-11-30T06:36:31.157Z,3.70
2017-11-30T06:38:57.461Z,3.80
2017-11-30T06:41:23.775Z,3.80
2017-11-30T06:43:50.069Z,3.70
2017-11-30T06:46:17.109Z,3.70
2017-11-30T06:48:43.405Z,3.70
2017-11-30T06:51:09.732Z,3.70
2017-11-30T06:53:36.025Z,3.80
2017-11-30T06:56:02.342Z,3.80
2017-11-30T06:58:28.643Z,3.70
2017-11-30T07:00:56.404Z,3.60
2017-11-30T07:03:22.702Z,3.60
2017-11-30T07:05:48.969Z,3.60
2017-11-30T07:08:15.247Z,3.80
2017-11-30T07:10:41.572Z,3.80
2017-11-30T07:13:07.861Z,3.70
2017-11-30T07:15:34.902Z,3.70
2017-11-30T07:18:01.964Z,3.60
2017-11-30T07:20:28.335Z,3.60
2017-11-30T07:22:54.686Z,3.70
2017-11-30T07:25:21.043Z,3.80
2017-11-30T07:27:47.491Z,3.90
2017-11-30T07:30:14.542Z,3.80
2017-11-30T07:32:40.869Z,3.70
2017-11-30T07:35:07.966Z,3.60
2017-11-30T07:37:34.265Z,3.60
2017-11-30T07:40:01.013Z,3.60
2017-11-30T07:42:27.301Z,3.80
2017-11-30T07:44:53.642Z,3.80
2017-11-30T07:47:20.717Z,3.90
2017-11-30T07:49:47.044Z,3.80
2017-11-30T07:52:13.525Z,3.90
2017-11-30T07:54:39.827Z,3.80
2017-11-30T07:57:06.166Z,3.80
2017-11-30T07:59:32.486Z,3.80
2017-11-30T08:01:58.813Z,3.70
2017-11-30T08:04:25.166Z,3.90
2017-11-30T08:06:51.480Z,3.80
2017-11-30T08:09:17.808Z,3.70
2017-11-30T08:11:44.213Z,3.80
2017-11-30T08:14:11.328Z,3.70
2017-11-30T08:16:38.386Z,3.70
2017-11-30T08:19:05.452Z,3.70
2017-11-30T08:21:32.555Z,3.90
2017-11-30T08:23:58.907Z,3.90
2017-11-30T08:26:26.014Z,4.00
2017-11-30T08:28:52.394Z,3.90
2017-11-30T08:31:19.469Z,3.90
2017-11-30T08:33:45.827Z,3.90
2017-11-30T08:36:12.208Z,4.00
2017-11-30T08:38:39.346Z,4.00
2017-11-30T08:41:05.664Z,3.90
2017-11-30T08:43:32.071Z,3.90
2017-11-30T08:45:58.504Z,3.80
2017-11-30T08:48:24.897Z,3.90
2017-11-30T08:50:51.261Z,4.00
2017-11-30T08:53:17.599Z,4.00
2017-11-30T08:55:43.981Z,4.00
2017-11-30T08:58:17.365Z,4.00
2017-11-30T09:00:43.748Z,4.00
2017-11-30T09:03:10.441Z,4.00
2017-11-30T09:05:37.673Z,4.10
2017-11-30T09:08:04.156Z,4.00
2017-11-30T09:10:30.587Z,4.00
2017-11-30T09:12:57.001Z,4.10
2017-11-30T09:15:23.424Z,3.90
2017-11-30T09:17:50.606Z,4.20
2017-11-30T09:20:17.099Z,4.10
2017-11-30T09:22:44.264Z,4.00
2017-11-30T09:25:10.838Z,3.90
2017-11-30T09:27:37.335Z,4.00
2017-11-30T09:30:03.737Z,4.00
2017-11-30T09:32:30.115Z,4.10
2017-11-30T09:34:56.472Z,4.00
2017-11-30T09:37:23.034Z,4.00
2017-11-30T09:39:49.622Z,4.10
2017-11-30T09:42:16.041Z,4.00
2017-11-30T09:44:42.977Z,4.00
2017-11-30T09:47:09.531Z,4.00
2017-11-30T09:49:35.907Z,3.90
2017-11-30T09:52:02.387Z,4.10
2017-11-30T09:54:28.729Z,4.10
2017-11-30T09:56:55.194Z,3.90
2017-11-30T09:59:21.626Z,4.00
2017-11-30T10:01:48.025Z,4.00
2017-11-30T10:04:14.619Z,4.00
2017-11-30T10:06:41.211Z,3.90
2017-11-30T10:09:07.564Z,3.90
2017-11-30T10:11:34.217Z,4.00
2017-11-30T10:14:01.002Z,4.10
2017-11-30T10:16:27.904Z,3.90
2017-11-30T10:18:54.461Z,4.00
2017-11-30T10:21:20.879Z,4.10
2017-11-30T10:23:48.431Z,4.30
2017-11-30T10:26:15.009Z,4.30
2017-11-30T10:28:41.435Z,4.30
2017-11-30T10:31:09.057Z,4.20
2017-11-30T10:33:35.799Z,4.10
2017-11-30T10:36:02.829Z,4.10
2017-11-30T10:38:30.105Z,4.20
2017-11-30T10:40:56.571Z,4.20
2017-11-30T10:43:23.080Z,4.30
2017-11-30T10:45:49.810Z,4.40
2017-11-30T10:48:16.203Z,4.30
2017-11-30T10:50:42.578Z,4.40
2017-11-30T10:53:08.908Z,4.50
2017-11-30T10:55:36.136Z,4.50
2017-11-30T10:58:02.541Z,4.50
2017-11-30T11:00:29.014Z,4.40
2017-11-30T11:02:55.534Z,4.40
2017-11-30T11:05:22.097Z,4.40
2017-11-30T11:07:48.486Z,4.50
2017-11-30T11:10:14.860Z,4.60
2017-11-30T11:12:41.329Z,4.60
2017-11-30T11:15:07.691Z,4.60
2017-11-30T11:17:34.039Z,4.60
2017-11-30T11:20:00.448Z,4.50
2017-11-30T11:22:26.857Z,4.40
2017-11-30T11:24:53.252Z,4.40
2017-11-30T11:27:20.371Z,4.50
2017-11-30T11:29:46.780Z,4.40
2017-11-30T11:32:13.224Z,4.40
2017-11-30T11:34:39.747Z,4.50
2017-11-30T11:37:06.087Z,4.30
2017-11-30T11:39:32.418Z,4.30
2017-11-30T11:41:58.740Z,4.30
2017-11-30T11:44:25.318Z,4.40
2017-11-30T11:46:51.923Z,4.20
2017-11-30T11:49:18.383Z,4.30
2017-11-30T11:51:44.731Z,4.20
2017-11-30T11:54:11.096Z,4.20
2017-11-30T11:56:37.481Z,4.30
2017-11-30T11:59:03.864Z,4.30
2017-11-30T12:01:30.307Z,4.40
2017-11-30T12:03:56.604Z,4.30
2017-11-30T12:06:22.939Z,4.40
2017-11-30T12:08:50.127Z,4.40
2017-11-30T12:11:16.470Z,4.40
2017-11-30T12:13:42.793Z,4.40
2017-11-30T12:16:09.116Z,4.40
2017-11-30T12:18:35.435Z,4.40
2017-11-30T12:21:01.757Z,4.40
2017-11-30T12:23:28.085Z,4.40
2017-11-30T12:25:54.382Z,4.40
2017-11-30T12:28:20.717Z,4.50
2017-11-30T12:30:47.060Z,4.50
2017-11-30T12:33:14.149Z,4.50
2017-11-30T12:35:40.499Z,4.40
2017-11-30T12:38:06.844Z,4.30
2017-11-30T12:40:33.197Z,4.40
2017-11-30T12:43:00.298Z,4.30
2017-11-30T12:45:26.623Z,4.30
2017-11-30T12:47:52.972Z,4.40
2017-11-30T12:50:19.333Z,4.40
2017-11-30T12:52:46.450Z,4.40
2017-11-30T12:55:13.738Z,4.40
2017-11-30T12:57:40.170Z,4.30
2017-11-30T13:00:07.398Z,4.40
2017-11-30T13:02:34.488Z,4.30
2017-11-30T13:05:01.567Z,4.40
2017-11-30T13:07:27.900Z,4.30
2017-11-30T13:09:54.526Z,4.50
2017-11-30T13:12:20.944Z,4.50
2017-11-30T13:14:47.290Z,4.60
2017-11-30T13:17:14.060Z,4.70
2017-11-30T13:19:41.164Z,4.70
2017-11-30T13:22:07.495Z,4.60
2017-11-30T13:24:33.854Z,4.80
2017-11-30T13:27:00.189Z,4.80
2017-11-30T13:29:26.513Z,4.80
2017-11-30T13:31:52.811Z,4.90
2017-11-30T13:34:19.404Z,4.80
2017-11-30T13:36:46.562Z,4.80
2017-11-30T13:39:12.880Z,4.70
2017-11-30T13:41:39.205Z,4.80
2017-11-30T13:44:05.985Z,4.90
2017-11-30T13:46:32.377Z,4.90
2017-11-30T13:48:58.742Z,4.90
2017-11-30T13:51:25.117Z,5.00
2017-11-30T13:53:51.587Z,5.00
2017-11-30T13:56:17.922Z,4.90
2017-11-30T13:58:45.001Z,4.60
2017-11-30T14:01:11.358Z,4.60
2017-11-30T14:03:37.926Z,4.50
2017-11-30T14:06:05.762Z,4.50
2017-11-30T14:08:32.054Z,4.50
2017-11-30T14:10:58.382Z,4.50
2017-11-30T14:13:25.449Z,4.40
2017-11-30T14:15:51.785Z,4.30
2017-11-30T14:18:18.080Z,4.30
2017-11-30T14:20:45.178Z,4.40
2017-11-30T14:23:11.494Z,4.30
2017-11-30T14:25:37.821Z,4.30
2017-11-30T14:28:04.151Z,4.30
2017-11-30T14:30:30.461Z,4.30
2017-11-30T14:32:57.601Z,4.20
2017-11-30T14:35:24.665Z,4.20
2017-11-30T14:37:51.013Z,4.20
2017-11-30T14:40:17.312Z,4.20
2017-11-30T14:42:44.372Z,4.10
2017-11-30T14:45:11.413Z,4.10
2017-11-30T14:47:38.492Z,4.10
2017-11-30T14:50:04.782Z,4.10
2017-11-30T14:52:31.086Z,4.10
2017-11-30T14:54:57.377Z,4.10
2017-11-30T14:57:23.665Z,4.10
2017-11-30T14:59:49.952Z,4.10
2017-11-30T15:02:16.243Z,4.20
2017-11-30T15:04:43.270Z,4.10
2017-11-30T15:07:09.599Z,4.10
2017-11-30T15:09:35.897Z,4.10
2017-11-30T15:12:02.212Z,4.10
2017-11-30T15:14:28.521Z,4.10
2017-11-30T15:16:54.820Z,4.00
2017-11-30T15:19:21.110Z,4.00
2017-11-30T15:21:47.469Z,4.00
2017-11-30T15:24:13.750Z,3.90
2017-11-30T15:26:40.034Z,3.80
2017-11-30T15:29:06.358Z,3.80
2017-11-30T15:31:32.677Z,3.90
2017-11-30T15:33:58.990Z,3.90
2017-11-30T15:36:25.316Z,3.80
2017-11-30T15:38:51.651Z,4.50
2017-11-30T15:41:17.965Z,4.70
2017-11-30T15:43:44.292Z,4.30
2017-11-30T15:46:10.582Z,4.10
2017-11-30T15:48:36.917Z,4.00
2017-11-30T15:51:03.237Z,3.90
2017-11-30T15:53:29.536Z,3.80
2017-11-30T15:55:55.837Z,3.80
2017-11-30T15:58:22.162Z,3.80
2017-11-30T16:00:48.466Z,3.80
2017-11-30T16:03:14.804Z,3.70
2017-11-30T16:05:41.183Z,3.70
2017-11-30T16:08:07.509Z,3.60
2017-11-30T16:10:33.881Z,3.40
2017-11-30T16:13:00.186Z,3.40
2017-11-30T16:15:26.520Z,3.40
2017-11-30T16:17:52.819Z,3.40
2017-11-30T16:20:19.125Z,3.40
2017-11-30T16:22:45.438Z,3.50
2017-11-30T16:25:11.769Z,3.40
2017-11-30T16:27:38.095Z,3.50
2017-11-30T16:30:05.191Z,3.60
2017-11-30T16:32:31.488Z,3.60
2017-11-30T16:34:58.564Z,3.50
2017-11-30T16:37:24.899Z,3.50
2017-11-30T16:39:51.225Z,3.50
2017-11-30T16:42:17.525Z,3.40
2017-11-30T16:44:44.579Z,3.30
2017-11-30T16:47:10.890Z,3.30
2017-11-30T16:49:37.441Z,3.20
2017-11-30T16:52:03.906Z,3.20
2017-11-30T16:54:30.271Z,3.40
2017-11-30T16:56:56.576Z,3.70
2017-11-30T16:59:22.864Z,3.70
2017-11-30T17:01:49.896Z,3.50
2017-11-30T17:04:16.178Z,3.50
2017-11-30T17:06:42.502Z,3.60
2017-11-30T17:09:08.817Z,3.50
2017-11-30T17:11:35.120Z,3.60
2017-11-30T17:14:01.462Z,3.60
2017-11-30T17:16:27.811Z,3.60
2017-11-30T17:18:54.146Z,3.40
2017-11-30T17:21:20.461Z,3.50
2017-11-30T17:23:46.774Z,3.40
2017-11-30T17:26:13.118Z,3.50
2017-11-30T17:28:39.467Z,3.50
2017-11-30T17:31:05.810Z,3.60
2017-11-30T17:33:32.093Z,3.50
2017-11-30T17:35:59.140Z,3.30
2017-11-30T17:38:26.349Z,3.30
2017-11-30T17:40:52.720Z,3.30
2017-11-30T17:43:19.799Z,3.30
2017-11-30T17:45:46.097Z,3.30
2017-11-30T17:48:13.138Z,3.30
2017-11-30T17:50:39.529Z,3.20
2017-11-30T17:53:05.927Z,3.30
2017-11-30T17:55:32.263Z,3.40
2017-11-30T17:57:58.589Z,3.30
2017-11-30T18:00:24.890Z,3.20
2017-11-30T18:02:51.929Z,3.30
2017-11-30T18:05:18.238Z,3.30
2017-11-30T18:07:44.532Z,3.30
2017-11-30T18:10:10.824Z,3.30
2017-11-30T18:12:37.114Z,3.40
2017-11-30T18:15:03.433Z,3.30
2017-11-30T18:17:29.748Z,3.40
2017-11-30T18:19:56.069Z,3.50
2017-11-30T18:22:23.120Z,3.50
2017-11-30T18:24:50.251Z,3.40
2017-11-30T18:27:16.561Z,3.40
2017-11-30T18:29:42.885Z,3.30
2017-11-30T18:32:09.209Z,3.20
2017-11-30T18:34:35.506Z,3.30
2017-11-30T18:37:01.810Z,3.40
2017-11-30T18:39:28.865Z,3.60
2017-11-30T18:41:55.169Z,3.50
2017-11-30T18:44:21.464Z,3.60
2017-11-30T18:46:47.778Z,3.40
2017-11-30T18:49:14.143Z,3.30
2017-11-30T18:51:40.442Z,3.20
2017-11-30T18:54:06.736Z,3.20
2017-11-30T18:56:33.787Z,3.10
2017-11-30T18:59:00.805Z,3.00
2017-11-30T19:01:27.112Z,3.00
2017-11-30T19:03:53.394Z,2.90
2017-11-30T19:06:21.171Z,3.00
2017-11-30T19:08:48.296Z,3.00
2017-11-30T19:11:14.622Z,2.90
2017-11-30T19:13:40.911Z,3.00
2017-11-30T19:16:07.213Z,3.20
2017-11-30T19:18:33.498Z,3.30
2017-11-30T19:20:59.782Z,3.40
2017-11-30T19:23:33.062Z,3.50
2017-11-30T19:25:59.339Z,3.40
2017-11-30T19:28:25.648Z,3.30
2017-11-30T19:30:51.952Z,3.40
2017-11-30T19:33:18.232Z,3.40
2017-11-30T19:35:44.501Z,3.40
2017-11-30T19:38:10.795Z,3.40
2017-11-30T19:40:37.096Z,3.30
2017-11-30T19:43:03.402Z,3.20
2017-11-30T19:45:29.684Z,3.30
2017-11-30T19:47:55.976Z,3.20
2017-11-30T19:50:22.309Z,3.00
2017-11-30T19:52:48.601Z,2.90
2017-11-30T19:55:15.629Z,2.80
2017-11-30T19:57:41.929Z,2.80
2017-11-30T20:00:08.223Z,3.00
2017-11-30T20:02:34.558Z,3.10
2017-11-30T20:05:00.850Z,3.10
2017-11-30T20:07:27.149Z,3.10
2017-11-30T20:09:53.471Z,3.10
2017-11-30T20:12:19.795Z,3.20
2017-11-30T20:14:46.109Z,3.30
2017-11-30T20:17:12.402Z,3.20
2017-11-30T20:19:38.885Z,3.10
2017-11-30T20:22:05.202Z,3.10
2017-11-30T20:24:31.498Z,3.10
2017-11-30T20:26:58.557Z,3.00
2017-11-30T20:29:24.913Z,3.00
2017-11-30T20:31:51.210Z,3.00
2017-11-30T20:34:18.229Z,3.10
2017-11-30T20:36:44.531Z,3.10
2017-11-30T20:39:10.819Z,3.20
2017-11-30T20:41:37.860Z,3.10
2017-11-30T20:44:04.926Z,3.10
2017-11-30T20:46:31.268Z,3.00
2017-11-30T20:48:57.568Z,3.10
2017-11-30T20:51:24.664Z,3.00
2017-11-30T20:53:50.942Z,3.00
2017-11-30T20:56:17.994Z,3.10
2017-11-30T20:58:45.018Z,3.00
2017-11-30T21:01:11.313Z,3.00
2017-11-30T21:03:37.602Z,3.10
2017-11-30T21:06:04.671Z,2.90
2017-11-30T21:08:30.946Z,2.80
2017-11-30T21:10:57.241Z,2.90
2017-11-30T21:13:23.533Z,2.90
2017-11-30T21:15:50.561Z,2.90
2017-11-30T21:18:16.838Z,2.80
2017-11-30T21:20:43.113Z,2.80
2017-11-30T21:23:09.417Z,2.80
2017-11-30T21:25:35.766Z,2.80
2017-11-30T21:28:02.069Z,2.70
2017-11-30T21:30:28.394Z,2.70
2017-11-30T21:32:54.691Z,2.90
2017-11-30T21:35:21.716Z,3.00
2017-11-30T21:37:48.001Z,3.00
2017-11-30T21:40:14.289Z,3.00
2017-11-30T21:42:41.345Z,2.90
2017-11-30T21:45:08.388Z,3.00
2017-11-30T21:47:35.445Z,2.90
2017-11-30T21:50:01.736Z,2.90
2017-11-30T21:52:28.050Z,3.00
2017-11-30T21:54:54.344Z,2.90
2017-11-30T21:57:20.643Z,2.90
2017-11-30T21:59:47.660Z,3.40
2017-11-30T22:02:13.955Z,3.30
2017-11-30T22:04:40.270Z,3.30
2017-11-30T22:07:06.619Z,3.20
2017-11-30T22:09:32.929Z,3.30
2017-11-30T22:11:59.259Z,3.10
2017-11-30T22:14:25.555Z,3.30
2017-11-30T22:16:51.835Z,3.30
2017-11-30T22:19:18.155Z,3.50
2017-11-30T22:21:44.466Z,3.60
2017-11-30T22:24:11.546Z,3.30
2017-11-30T22:26:37.836Z,3.20
2017-11-30T22:29:04.927Z,3.10
2017-11-30T22:31:31.228Z,3.10
2017-11-30T22:33:58.360Z,3.00
2017-11-30T22:36:25.429Z,2.90
2017-11-30T22:38:51.749Z,2.90
2017-11-30T22:41:18.829Z,3.00
2017-11-30T22:43:45.150Z,3.00
2017-11-30T22:46:11.480Z,2.90
2017-11-30T22:48:37.810Z,2.90
2017-11-30T22:51:04.121Z,2.90
2017-11-30T22:53:31.201Z,3.00
2017-11-30T22:55:57.532Z,3.00
2017-11-30T22:58:23.850Z,2.90
2017-11-30T23:00:50.200Z,3.00
2017-11-30T23:03:16.517Z,3.10
2017-11-30T23:05:42.862Z,3.20
2017-11-30T23:08:09.149Z,3.30
2017-11-30T23:10:35.475Z,3.20
2017-11-30T23:13:01.803Z,3.10
2017-11-30T23:15:28.857Z,3.10
2017-11-30T23:17:55.900Z,3.10
2017-11-30T23:20:22.222Z,3.00
2017-11-30T23:22:49.269Z,2.90
2017-11-30T23:25:16.339Z,2.90
2017-11-30T23:27:43.386Z,2.90
2017-11-30T23:30:09.729Z,2.90
2017-11-30T23:32:36.062Z,3.00
2017-11-30T23:35:02.372Z,3.10
2017-11-30T23:37:28.690Z,3.10
2017-11-30T23:39:55.725Z,3.20
2017-11-30T23:42:22.043Z,3.20
2017-11-30T23:44:48.361Z,3.30
2017-11-30T23:49:47.756Z,3.40
2017-11-30T23:52:14.059Z,3.30
2017-11-30T23:54:40.368Z,3.40
2017-11-30T23:57:07.401Z,3.40
2017-11-30T23:59:33.700Z,3.40
